Time;durP1;ratioP1;P1;durP2;ratioP2;P2;SDS_P1;SDS_P2;PMS_P1;PMS_P2;Temp;Humidity;BMP_temperature;BMP_pressure;BME280_temperature;BME280_humidity;BME280_pressure;Samples;Min_cycle;Max_cycle;Signal;HPM_P1;HPM_P2
2021/12/02 00:01:19;;;;;;;5.70;3.40;;;;;;;-2.84;100.00;99270.88;1549843;91;21147;-70
2021/12/02 00:03:47;;;;;;;3.87;2.67;;;;;;;-2.89;100.00;99272.50;1577844;91;21076;-69
2021/12/02 00:06:18;;;;;;;6.40;3.10;;;;;;;-2.95;100.00;99271.61;1577976;91;21562;-71
2021/12/02 00:08:46;;;;;;;7.47;2.73;;;;;;;-2.99;100.00;99263.52;1578011;91;21080;-69
2021/12/02 00:11:13;;;;;;;5.77;3.10;;;;;;;-3.02;100.00;99266.85;1621237;88;21056;-68
2021/12/02 00:21:13;;;;;;;9.30;3.87;;;;;;;-3.14;100.00;99305.05;1545297;93;21077;-70
2021/12/02 00:23:57;;;;;;;7.17;3.83;;;;;;;-3.18;100.00;99311.51;1545218;93;21141;-70
2021/12/02 00:26:24;;;;;;;15.77;4.67;;;;;;;-3.21;100.00;99313.51;1535104;93;21122;-71
2021/12/02 00:28:53;;;;;;;13.27;3.87;;;;;;;-3.25;100.00;99307.58;1538351;93;21165;-70
2021/12/02 00:31:22;;;;;;;11.13;3.70;;;;;;;-3.29;100.00;99315.34;1541751;93;21596;-69
2021/12/02 00:33:52;;;;;;;6.03;3.00;;;;;;;-3.34;100.00;99314.31;1562605;90;21065;-68
2021/12/02 00:36:21;;;;;;;5.67;2.87;;;;;;;-3.35;100.00;99305.16;1540130;92;21038;-68
2021/12/02 00:38:47;;;;;;;7.37;3.80;;;;;;;-3.33;100.00;99317.80;1540084;93;21118;-71
2021/12/02 00:41:16;;;;;;;9.83;4.20;;;;;;;-3.32;100.00;99323.47;1540028;93;21533;-69
2021/12/02 00:43:45;;;;;;;9.00;4.40;;;;;;;-3.32;100.00;99324.31;1539978;93;21107;-68
2021/12/02 00:46:15;;;;;;;12.60;4.67;;;;;;;-3.32;100.00;99324.31;1555801;92;21058;-68
2021/12/02 00:48:42;;;;;;;19.47;7.40;;;;;;;-3.29;100.00;99317.99;1513530;93;21075;-69
2021/12/02 00:51:10;;;;;;;24.30;7.93;;;;;;;-3.29;100.00;99324.12;1526182;94;21154;-70
2021/12/02 00:53:44;;;;;;;21.00;7.63;;;;;;;-3.29;100.00;99328.56;1622485;84;21064;-70
2021/12/02 00:56:14;;;;;;;20.77;7.50;;;;;;;-3.33;100.00;99331.89;1749652;82;21551;-69
2021/12/02 00:58:43;;;;;;;21.40;7.80;;;;;;;-3.36;100.00;99346.63;1749638;82;21523;-70
2021/12/02 01:01:10;;;;;;;19.57;7.50;;;;;;;-3.39;100.00;99335.39;1749808;82;20991;-69
2021/12/02 01:03:37;;;;;;;20.70;7.90;;;;;;;-3.46;100.00;99331.81;1749424;82;21054;-71
2021/12/02 01:06:05;;;;;;;19.17;7.57;;;;;;;-3.51;100.00;99343.64;1749796;82;21002;-68
2021/12/02 01:08:34;;;;;;;20.30;7.57;;;;;;;-3.54;100.00;99336.77;1749634;82;21037;-69
2021/12/02 01:11:01;;;;;;;19.47;7.87;;;;;;;-3.56;100.00;99346.59;1749608;82;21579;-69
2021/12/02 01:13:28;;;;;;;21.93;7.30;;;;;;;-3.58;100.00;99347.14;1749721;82;21007;-70
2021/12/02 01:15:55;;;;;;;19.37;7.20;;;;;;;-3.63;100.00;99352.73;1749520;82;21025;-69
2021/12/02 01:18:23;;;;;;;17.30;6.93;;;;;;;-3.68;100.00;99361.42;1749394;82;20995;-70
2021/12/02 01:20:51;;;;;;;16.07;6.20;;;;;;;-3.71;100.00;99359.45;1777860;80;21032;-69
2021/12/02 01:23:20;;;;;;;16.53;6.03;;;;;;;-3.72;100.00;99364.34;1785396;80;21085;-70
2021/12/02 01:26:03;;;;;;;13.87;5.83;;;;;;;-3.71;100.00;99358.97;1785673;79;21033;-70
2021/12/02 01:28:30;;;;;;;14.47;5.75;;;;;;;-3.68;100.00;99359.27;1785702;79;20963;-70
2021/12/02 01:30:57;;;;;;;15.43;5.63;;;;;;;-3.67;100.00;99362.27;1785651;80;21013;-68
2021/12/02 01:33:26;;;;;;;14.10;5.20;;;;;;;-3.69;100.00;99358.39;1778454;80;21436;-69
2021/12/02 01:35:57;;;;;;;12.77;5.43;;;;;;;-3.71;100.00;99355.48;1771187;81;20947;-71
2021/12/02 01:38:24;;;;;;;19.63;6.13;;;;;;;-3.75;100.00;99351.33;1693143;84;21077;-69
2021/12/02 01:40:52;;;;;;;21.50;6.73;;;;;;;-3.79;100.00;99356.44;1693113;83;21062;-70
2021/12/02 01:43:20;;;;;;;13.67;5.73;;;;;;;-3.87;100.00;99352.48;1693063;85;21571;-70
2021/12/02 01:45:47;;;;;;;15.57;5.30;;;;;;;-3.92;100.00;99355.88;1693231;85;21046;-69
2021/12/02 01:48:24;;;;;;;11.60;5.33;;;;;;;-3.96;100.00;99360.16;1693459;84;21054;-70
2021/12/02 01:51:05;;;;;;;12.63;5.57;;;;;;;-3.98;100.00;99360.70;1695356;85;21081;-70
2021/12/02 01:53:36;;;;;;;13.23;5.20;;;;;;;-4.01;100.00;99367.87;1695126;83;21239;-70
2021/12/02 01:56:13;;;;;;;11.13;4.80;;;;;;;-3.99;100.00;99375.70;1695522;85;21011;-71
2021/12/02 01:58:50;;;;;;;12.70;5.17;;;;;;;-3.94;100.00;99382.88;1631224;88;21139;-71
2021/12/02 02:01:26;;;;;;;12.47;5.17;;;;;;;-3.91;100.00;99372.57;1631435;87;21019;-69
2021/12/02 02:03:54;;;;;;;16.53;6.00;;;;;;;-3.90;100.00;99369.00;1631557;88;21585;-69
2021/12/02 02:06:31;;;;;;;17.90;6.47;;;;;;;-3.91;100.00;99369.48;1631516;88;21019;-70
2021/12/02 02:08:59;;;;;;;18.00;6.53;;;;;;;-3.91;100.00;99369.48;1631694;88;21086;-70
2021/12/02 02:11:29;;;;;;;16.20;6.30;;;;;;;-3.89;100.00;99364.11;1631674;88;21043;-70
2021/12/02 02:13:57;;;;;;;18.37;6.97;;;;;;;-3.90;100.00;99370.32;1631397;88;21100;-68
2021/12/02 02:16:24;;;;;;;17.93;6.30;;;;;;;-3.93;100.00;99367.41;1631456;87;21030;-69
2021/12/02 02:18:52;;;;;;;22.30;7.40;;;;;;;-4.00;100.00;99375.34;1631453;88;21100;-70
2021/12/02 02:21:22;;;;;;;23.17;7.87;;;;;;;-4.04;100.00;99379.97;1614901;88;21588;-69
2021/12/02 02:23:55;;;;;;;23.87;7.80;;;;;;;-4.06;100.00;99381.83;1614794;89;21105;-69
2021/12/02 02:26:24;;;;;;;17.67;6.97;;;;;;;-4.06;100.00;99379.67;1611244;89;21090;-69
2021/12/02 02:28:50;;;;;;;20.57;7.23;;;;;;;-4.05;100.00;99378.73;1614666;88;21062;-70
2021/12/02 02:31:17;;;;;;;15.37;6.27;;;;;;;-4.04;100.00;99380.42;1614809;89;21006;-71
2021/12/02 02:33:49;;;;;;;14.00;6.10;;;;;;;-4.04;100.00;99385.70;1615026;88;21550;-70
2021/12/02 02:36:15;;;;;;;15.07;6.23;;;;;;;-4.05;100.00;99386.66;1646017;86;21072;-70
2021/12/02 02:38:44;;;;;;;20.00;7.00;;;;;;;-4.07;100.00;99387.20;1647353;87;21037;-70
2021/12/02 02:41:12;;;;;;;19.57;7.73;;;;;;;-4.10;100.00;99386.92;1647507;87;21073;-69
2021/12/02 02:43:39;;;;;;;19.57;7.63;;;;;;;-4.12;100.00;99388.81;1647135;86;21095;-67
2021/12/02 02:46:08;;;;;;;17.30;6.97;;;;;;;-4.15;100.00;99382.39;1615903;89;21490;-69
2021/12/02 02:48:35;;;;;;;16.83;6.90;;;;;;;-4.19;100.00;99382.22;1633158;86;21094;-69
2021/12/02 02:51:02;;;;;;;20.53;7.53;;;;;;;-4.21;100.00;99381.47;1686330;85;21086;-69
2021/12/02 02:53:29;;;;;;;18.77;7.47;;;;;;;-4.24;100.00;99374.56;1686339;85;21103;-69
2021/12/02 02:56:07;;;;;;;24.80;8.80;;;;;;;-4.28;100.00;99369.59;1751721;81;21002;-69
2021/12/02 03:01:15;;;;;;;23.30;9.77;;;;;;;-4.34;100.00;99371.27;1693607;83;21065;-70
2021/12/02 03:06:26;;;;;;;23.90;9.90;;;;;;;-4.39;100.00;99367.13;1718743;83;20986;-68
2021/12/02 03:08:49;;;;;;;20.33;9.97;;;;;;;-4.42;100.00;99360.70;1714982;83;21022;-68
2021/12/02 03:11:12;;;;;;;20.40;8.93;;;;;;;-4.43;100.00;99360.31;1701848;82;21006;-70
2021/12/02 03:13:48;;;;;;;21.03;9.10;;;;;;;-4.44;100.00;99353.83;1748361;81;21453;-70
2021/12/02 03:18:54;;;;;;;20.00;9.33;;;;;;;-4.46;100.00;99366.24;1748447;82;20955;-69
2021/12/02 03:21:23;;;;;;;18.80;9.40;;;;;;;-4.45;100.00;99372.75;1757169;81;21013;-69
2021/12/02 03:23:55;;;;;;;21.07;10.43;;;;;;;-4.45;100.00;99367.95;1757101;82;21576;-68
2021/12/02 03:26:22;;;;;;;21.60;11.08;;;;;;;-4.46;100.00;99368.44;1757350;82;20995;-70
2021/12/02 03:28:50;;;;;;;20.87;10.70;;;;;;;-4.45;100.00;99365.31;1757032;82;21038;-69
2021/12/02 03:31:17;;;;;;;22.93;11.87;;;;;;;-4.46;100.00;99372.84;1757020;82;20990;-70
2021/12/02 03:33:44;;;;;;;23.00;12.43;;;;;;;-4.47;100.00;99375.12;1776378;80;20986;-69
2021/12/02 03:36:11;;;;;;;21.90;11.27;;;;;;;-4.50;100.00;99381.41;1788194;80;21037;-69
2021/12/02 03:38:38;;;;;;;23.40;12.00;;;;;;;-4.49;100.00;99398.12;1788129;80;21009;-69
2021/12/02 03:41:05;;;;;;;23.80;12.17;;;;;;;-4.50;100.00;99396.41;1788163;80;20997;-69
2021/12/02 03:43:40;;;;;;;26.27;12.20;;;;;;;-4.53;100.00;99397.45;1787941;80;21490;-69
2021/12/02 03:46:10;;;;;;;26.30;13.53;;;;;;;-4.52;100.00;99395.66;1760112;80;21025;-70
2021/12/02 03:48:37;;;;;;;26.87;13.83;;;;;;;-4.56;100.00;99394.98;1784696;79;21014;-68
2021/12/02 03:51:05;;;;;;;28.60;13.60;;;;;;;-4.58;100.00;99405.63;1770828;81;21048;-69
2021/12/02 03:53:33;;;;;;;30.77;13.87;;;;;;;-4.58;100.00;99408.75;1770743;81;21031;-70
2021/12/02 03:56:01;;;;;;;23.87;11.73;;;;;;;-4.60;100.00;99408.83;1771002;81;20994;-68
2021/12/02 03:58:29;;;;;;;17.90;9.43;;;;;;;-4.60;100.00;99407.99;1770923;80;21006;-69
2021/12/02 04:00:55;;;;;;;19.63;8.80;;;;;;;-4.59;100.00;99402.59;1770921;81;21113;-69
2021/12/02 04:03:22;;;;;;;20.90;9.93;;;;;;;-4.59;100.00;99402.59;1771196;81;20974;-69
2021/12/02 04:05:49;;;;;;;17.37;9.20;;;;;;;-4.58;100.00;99406.95;1770736;81;21030;-68
2021/12/02 04:08:17;;;;;;;15.27;8.60;;;;;;;-4.55;100.00;99405.94;1771051;81;21002;-69
2021/12/02 04:10:45;;;;;;;19.77;8.33;;;;;;;-4.53;100.00;99398.77;1770801;81;21018;-69
2021/12/02 04:15:45;;;;;;;19.67;8.73;;;;;;;-4.54;100.00;99401.50;1771074;81;21504;-70
2021/12/02 04:18:11;;;;;;;17.37;8.70;;;;;;;-4.52;100.00;99403.57;1770860;81;21045;-70
2021/12/02 04:20:38;;;;;;;19.20;8.80;;;;;;;-4.51;100.00;99407.92;1778689;80;21014;-70
2021/12/02 04:23:05;;;;;;;21.93;10.50;;;;;;;-4.51;100.00;99413.20;1782221;80;20987;-70
2021/12/02 04:25:34;;;;;;;19.70;9.67;;;;;;;-4.50;100.00;99406.96;1781893;80;21492;-67
2021/12/02 04:28:01;;;;;;;13.37;7.87;;;;;;;-4.50;100.00;99399.05;1782175;80;21070;-68
2021/12/02 04:30:28;;;;;;;13.57;7.23;;;;;;;-4.49;100.00;99402.08;1781855;80;21031;-69
2021/12/02 04:32:56;;;;;;;13.70;6.87;;;;;;;-4.46;100.00;99400.55;1782233;79;20947;-70
2021/12/02 04:35:24;;;;;;;12.43;7.07;;;;;;;-4.44;100.00;99409.25;1744741;82;21027;-69
2021/12/02 04:37:52;;;;;;;17.67;8.20;;;;;;;-4.43;100.00;99410.93;1744839;82;21022;-69
2021/12/02 04:40:20;;;;;;;15.90;8.03;;;;;;;-4.44;100.00;99409.25;1744814;82;20986;-69
2021/12/02 04:42:48;;;;;;;17.70;8.03;;;;;;;-4.42;100.00;99413.97;1782084;80;21015;-69
2021/12/02 04:45:15;;;;;;;16.73;8.07;;;;;;;-4.45;100.00;99414.98;1744834;82;21516;-69
2021/12/02 04:47:44;;;;;;;18.00;8.03;;;;;;;-4.44;100.00;99410.09;1744866;82;21026;-70
2021/12/02 04:50:11;;;;;;;36.53;20.60;;;;;;;-4.46;100.00;99410.66;1744453;82;21066;-69
2021/12/02 04:52:38;;;;;;;26.67;14.33;;;;;;;-4.45;100.00;99409.70;1781929;80;21058;-70
2021/12/02 04:55:06;;;;;;;22.77;11.70;;;;;;;-4.44;100.00;99410.58;1782177;80;21015;-69
2021/12/02 04:57:33;;;;;;;20.60;10.90;;;;;;;-4.47;100.00;99402.34;1781935;80;21476;-70
2021/12/02 05:00:00;;;;;;;25.50;9.87;;;;;;;-4.50;100.00;99404.33;1782210;80;21556;-69
2021/12/02 05:02:26;;;;;;;17.77;10.87;;;;;;;-4.52;100.00;99411.01;1782145;80;20975;-67
2021/12/02 05:04:53;;;;;;;28.00;13.47;;;;;;;-4.54;100.00;99414.69;1782005;80;21008;-68
2021/12/02 05:07:20;;;;;;;21.90;11.07;;;;;;;-4.55;100.00;99423.09;1782025;79;21023;-70
2021/12/02 05:09:48;;;;;;;20.27;9.73;;;;;;;-4.55;100.00;99414.30;1781813;80;20991;-67
2021/12/02 05:12:14;;;;;;;19.23;8.93;;;;;;;-4.54;100.00;99416.02;1744838;82;20999;-68
2021/12/02 05:14:41;;;;;;;17.93;8.97;;;;;;;-4.54;100.00;99416.02;1782147;80;21496;-67
2021/12/02 05:17:09;;;;;;;17.50;8.57;;;;;;;-4.54;100.00;99424.77;1745120;82;21555;-68
2021/12/02 05:19:37;;;;;;;18.50;10.07;;;;;;;-4.53;100.00;99421.20;1739007;82;21021;-68
2021/12/02 05:22:05;;;;;;;23.13;11.53;;;;;;;-4.51;100.00;99414.52;1782016;80;21027;-68
2021/12/02 05:24:32;;;;;;;22.73;11.97;;;;;;;-4.50;100.00;99421.00;1781962;79;21493;-68
2021/12/02 05:26:59;;;;;;;25.07;12.57;;;;;;;-4.47;100.00;99423.46;1781833;80;20996;-66
2021/12/02 05:29:26;;;;;;;27.83;14.83;;;;;;;-4.44;100.00;99414.53;1781814;80;20963;-69
2021/12/02 05:31:52;;;;;;;30.67;17.60;;;;;;;-4.42;100.00;99425.84;1782003;80;21045;-69
2021/12/02 05:34:19;;;;;;;34.87;17.33;;;;;;;-4.39;100.00;99413.79;1772203;80;20982;-68
2021/12/02 05:36:46;;;;;;;47.50;22.90;;;;;;;-4.33;100.00;99412.56;1770856;80;20994;-70
2021/12/02 05:39:12;;;;;;;79.50;35.20;;;;;;;-4.28;100.00;99407.86;1770687;81;21035;-67
2021/12/02 05:41:39;;;;;;;89.77;42.13;;;;;;;-4.23;100.00;99410.59;1770666;81;21018;-68
2021/12/02 05:44:06;;;;;;;62.27;31.37;;;;;;;-4.15;100.00;99415.88;1770950;81;21467;-67
2021/12/02 05:46:33;;;;;;;43.40;21.93;;;;;;;-4.06;100.00;99427.20;1771123;80;20990;-68
2021/12/02 05:49:00;;;;;;;27.20;14.03;;;;;;;-3.96;100.00;99428.83;1770747;80;21021;-69
2021/12/02 05:51:26;;;;;;;22.00;11.23;;;;;;;-3.84;100.00;99434.20;1770801;81;21040;-68
2021/12/02 05:53:53;;;;;;;18.83;9.90;;;;;;;-3.64;100.00;99442.67;1770881;81;21030;-68
2021/12/02 05:56:20;;;;;;;26.10;14.90;;;;;;;-3.46;100.00;99444.16;1771138;81;21018;-68
2021/12/02 05:58:47;;;;;;;34.20;19.90;;;;;;;-3.31;100.00;99440.16;1770734;81;21065;-69
2021/12/02 06:01:14;;;;;;;30.80;17.67;;;;;;;-3.21;100.00;99440.44;1769851;81;21080;-69
2021/12/02 06:03:41;;;;;;;28.60;15.37;;;;;;;-3.16;100.00;99431.73;1769861;81;21319;-69
2021/12/02 06:06:08;;;;;;;32.27;16.47;;;;;;;-3.14;100.00;99435.13;1770855;80;21010;-69
2021/12/02 06:08:37;;;;;;;28.40;12.93;;;;;;;-3.14;100.00;99427.19;1770593;80;21037;-68
2021/12/02 06:11:05;;;;;;;39.97;18.50;;;;;;;-3.13;100.00;99432.39;1770692;80;20983;-69
2021/12/02 06:13:34;;;;;;;36.70;21.33;;;;;;;-3.14;100.00;99437.29;1770571;81;21007;-70
2021/12/02 06:16:00;;;;;;;25.57;14.00;;;;;;;-3.14;100.00;99449.19;1770969;81;21592;-68
2021/12/02 06:18:28;;;;;;;29.97;11.57;;;;;;;-3.13;100.00;99457.52;1779029;80;20993;-69
2021/12/02 06:20:55;;;;;;;22.20;11.60;;;;;;;-3.10;100.00;99459.97;1781110;80;21027;-69
2021/12/02 06:23:22;;;;;;;22.00;10.40;;;;;;;-3.03;100.00;99462.20;1782019;80;21028;-67
2021/12/02 06:25:49;;;;;;;19.50;10.23;;;;;;;-2.99;100.00;99461.92;1780835;80;21529;-67
2021/12/02 06:28:17;;;;;;;20.67;9.90;;;;;;;-2.93;100.00;99464.64;1780631;80;21016;-69
2021/12/02 06:30:44;;;;;;;21.37;10.93;;;;;;;-2.90;100.00;99464.45;1780450;80;21357;-70
2021/12/02 06:33:11;;;;;;;25.80;11.90;;;;;;;-2.87;100.00;99464.22;1781210;80;20964;-69
2021/12/02 06:35:40;;;;;;;26.50;11.67;;;;;;;-2.85;100.00;99474.26;1781341;80;21053;-71
2021/12/02 06:38:07;;;;;;;21.00;10.63;;;;;;;-2.84;100.00;99480.39;1781441;80;20963;-69
2021/12/02 06:40:35;;;;;;;22.70;12.27;;;;;;;-2.78;100.00;99473.36;1781630;80;20977;-69
2021/12/02 06:43:03;;;;;;;24.30;14.50;;;;;;;-2.71;100.00;99473.33;1781916;80;20973;-67
2021/12/02 06:45:30;;;;;;;25.17;13.93;;;;;;;-2.61;100.00;99472.27;1781998;79;21005;-70
2021/12/02 06:47:59;;;;;;;20.33;10.60;;;;;;;-2.49;100.00;99475.43;1782042;80;21034;-68
2021/12/02 06:50:27;;;;;;;32.90;11.63;;;;;;;-2.37;100.00;99462.70;1786550;80;21042;-69
2021/12/02 06:52:55;;;;;;;22.47;10.60;;;;;;;-2.25;100.00;99470.75;1795842;80;20980;-69
2021/12/02 06:55:22;;;;;;;16.73;8.57;;;;;;;-2.12;100.00;99469.83;1795676;80;20971;-69
2021/12/02 06:57:49;;;;;;;17.30;8.50;;;;;;;-1.98;100.00;99462.27;1795523;80;21025;-69
2021/12/02 07:00:18;;;;;;;18.23;9.17;;;;;;;-1.79;100.00;99464.95;1795504;79;21004;-68
2021/12/02 07:02:45;;;;;;;17.77;9.20;;;;;;;-1.60;100.00;99465.85;1791800;80;21021;-70
2021/12/02 07:05:14;;;;;;;18.73;9.67;;;;;;;-1.43;100.00;99469.49;1795730;79;21042;-71
2021/12/02 07:07:41;;;;;;;19.37;10.00;;;;;;;-1.24;100.00;99469.04;1795327;80;21042;-71
2021/12/02 07:10:13;;;;;;;20.57;9.87;;;;;;;-1.12;100.00;99463.30;1795346;80;20994;-69
2021/12/02 07:12:42;;;;;;;20.57;10.40;;;;;;;-0.97;100.00;99462.69;1714518;83;21036;-70
2021/12/02 07:15:15;;;;;;;22.33;13.07;;;;;;;-0.85;100.00;99455.16;1717438;83;21524;-67
2021/12/02 07:17:39;;;;;;;19.43;11.00;;;;;;;-0.73;100.00;99452.55;1706777;84;20959;-68
2021/12/02 07:20:09;;;;;;;19.20;9.87;;;;;;;-0.67;100.00;99460.08;1706181;84;20997;-69
2021/12/02 07:22:36;;;;;;;20.47;10.63;;;;;;;-0.58;100.00;99466.87;1707658;84;20971;-71
2021/12/02 07:25:06;;;;;;;20.60;10.53;;;;;;;-0.52;100.00;99468.70;1708525;84;20997;-69
2021/12/02 07:27:33;;;;;;;20.00;10.07;;;;;;;-0.50;100.00;99460.97;1709638;84;21578;-69
2021/12/02 07:30:00;;;;;;;21.07;14.03;;;;;;;-0.45;100.00;99465.46;1710305;84;21061;-69
2021/12/02 07:32:32;;;;;;;22.70;12.50;;;;;;;-0.41;100.00;99470.06;1707264;84;20997;-70
2021/12/02 07:35:01;;;;;;;21.97;11.90;;;;;;;-0.33;100.00;99476.15;1699228;84;21042;-71
2021/12/02 07:37:28;;;;;;;24.43;14.20;;;;;;;-0.27;100.00;99487.14;1700461;84;21059;-70
2021/12/02 07:39:56;;;;;;;28.27;16.23;;;;;;;-0.23;100.00;99489.95;1700190;84;20990;-69
2021/12/02 07:42:23;;;;;;;32.07;19.23;;;;;;;-0.17;100.00;99482.48;1700495;84;21062;-68
2021/12/02 07:44:49;;;;;;;26.47;15.50;;;;;;;-0.08;100.00;99469.33;1700337;84;21585;-69
2021/12/02 07:47:16;;;;;;;25.60;13.77;;;;;;;0.07;100.00;99471.31;1700105;84;21057;-69
2021/12/02 07:49:44;;;;;;;23.33;14.47;;;;;;;0.25;100.00;99482.80;1697750;84;21036;-68
2021/12/02 07:52:10;;;;;;;26.13;14.50;;;;;;;0.42;100.00;99482.33;1707393;83;21547;-68
2021/12/02 07:54:39;;;;;;;31.27;19.70;;;;;;;0.55;100.00;99488.40;1693464;83;21050;-71
2021/12/02 07:57:06;;;;;;;28.47;16.47;;;;;;;0.72;100.00;99479.56;1687133;84;21128;-70
2021/12/02 07:59:33;;;;;;;25.77;15.87;;;;;;;0.75;100.00;99482.82;1657830;85;21083;-70
2021/12/02 08:02:00;;;;;;;24.27;15.00;;;;;;;0.84;100.00;99485.23;1682222;85;21157;-70
2021/12/02 08:04:28;;;;;;;24.80;14.57;;;;;;;0.97;100.00;99474.44;1682474;85;21078;-71
2021/12/02 08:06:55;;;;;;;27.20;15.87;;;;;;;1.05;100.00;99461.86;1681037;85;21085;-70
2021/12/02 08:09:22;;;;;;;23.77;14.87;;;;;;;1.21;100.00;99458.30;1693811;84;20982;-69
2021/12/02 08:11:50;;;;;;;23.37;14.47;;;;;;;1.27;100.00;99448.95;1773470;80;21513;-69
2021/12/02 08:14:17;;;;;;;23.33;15.33;;;;;;;1.26;100.00;99461.94;1778460;80;21011;-70
2021/12/02 08:16:44;;;;;;;25.73;16.07;;;;;;;1.29;100.00;99459.00;1786940;79;20983;-70
2021/12/02 08:19:13;;;;;;;27.20;17.07;;;;;;;1.28;100.00;99457.33;1781255;80;20991;-71
2021/12/02 08:21:40;;;;;;;24.97;15.77;;;;;;;1.32;100.00;99456.09;1780574;81;21503;-71
2021/12/02 08:24:07;;;;;;;25.10;15.60;;;;;;;1.48;100.00;99447.17;1780473;81;21060;-72
2021/12/02 08:26:35;;;;;;;26.83;15.77;;;;;;;1.52;100.00;99445.10;1780306;81;21028;-72
2021/12/02 08:29:03;;;;;;;24.83;15.80;;;;;;;1.53;100.00;99441.48;1780145;81;21037;-71
2021/12/02 08:31:30;;;;;;;26.23;15.50;;;;;;;1.46;100.00;99447.80;1780066;81;21080;-69
2021/12/02 08:33:57;;;;;;;23.37;14.77;;;;;;;1.40;100.00;99439.00;1781624;80;21512;-70
2021/12/02 08:36:29;;;;;;;23.63;14.37;;;;;;;1.48;100.00;99436.52;1781911;80;21515;-69
2021/12/02 08:38:54;;;;;;;26.23;15.57;;;;;;;1.64;100.00;99417.92;1783697;80;20993;-70
2021/12/02 08:41:21;;;;;;;23.80;14.27;;;;;;;1.85;100.00;99412.60;1781941;80;21014;-72
2021/12/02 08:43:48;;;;;;;22.63;13.47;;;;;;;1.98;100.00;99415.05;1781488;79;21006;-72
2021/12/02 08:46:17;;;;;;;22.53;13.50;;;;;;;1.99;100.00;99428.76;1780896;79;20975;-70
2021/12/02 08:48:46;;;;;;;25.10;16.30;;;;;;;2.00;100.00;99421.09;1779304;79;21039;-70
2021/12/02 08:51:13;;;;;;;26.03;16.03;;;;;;;1.95;100.00;99413.98;1790843;80;21122;-69
2021/12/02 08:53:40;;;;;;;23.53;14.73;;;;;;;1.84;100.00;99424.22;1797148;78;21002;-71
2021/12/02 08:56:06;;;;;;;24.30;15.37;;;;;;;1.70;100.00;99424.09;1793741;80;21008;-69
2021/12/02 08:58:35;;;;;;;23.70;14.50;;;;;;;1.59;100.00;99431.63;1795589;80;21068;-69
2021/12/02 09:01:02;;;;;;;25.33;16.03;;;;;;;1.54;100.00;99418.33;1795225;80;20991;-69
2021/12/02 09:03:29;;;;;;;29.57;16.07;;;;;;;1.50;100.00;99414.59;1795557;78;20980;-69
2021/12/02 09:05:56;;;;;;;21.70;13.33;;;;;;;1.49;100.00;99420.06;1797355;79;20955;-71
2021/12/02 09:08:24;;;;;;;23.00;13.43;;;;;;;1.48;100.00;99411.70;1795413;80;21018;-70
2021/12/02 09:10:51;;;;;;;23.60;14.03;;;;;;;1.44;100.00;99400.45;1799102;79;20978;-69
2021/12/02 09:13:18;;;;;;;22.30;13.17;;;;;;;1.45;100.00;99403.49;1798784;79;20973;-71
2021/12/02 09:15:46;;;;;;;26.73;14.10;;;;;;;1.47;100.00;99410.87;1797165;79;20984;-72
2021/12/02 09:18:12;;;;;;;26.43;15.90;;;;;;;1.47;100.00;99396.67;1795833;79;21039;-69
2021/12/02 09:20:41;;;;;;;22.33;13.63;;;;;;;1.49;100.00;99390.27;1794510;80;21030;-70
2021/12/02 09:23:08;;;;;;;23.73;12.77;;;;;;;1.49;100.00;99385.44;1796483;79;20982;-71
2021/12/02 09:25:37;;;;;;;20.77;12.50;;;;;;;1.52;100.00;99389.14;1795967;79;21393;-70
2021/12/02 09:28:04;;;;;;;22.23;13.97;;;;;;;1.54;100.00;99373.91;1794788;79;20985;-72
2021/12/02 09:30:31;;;;;;;23.57;14.40;;;;;;;1.51;100.00;99382.98;1796756;79;21032;-70
2021/12/02 09:32:58;;;;;;;32.07;17.87;;;;;;;1.51;100.00;99384.31;1793837;79;21857;-70
2021/12/02 09:35:25;;;;;;;28.60;15.80;;;;;;;1.53;100.00;99378.86;1804524;79;20974;-71
2021/12/02 09:37:52;;;;;;;26.17;15.80;;;;;;;1.56;100.00;99373.28;1801520;79;21001;-71
2021/12/02 09:40:20;;;;;;;27.73;16.83;;;;;;;1.63;100.00;99376.24;1798110;79;20960;-70
2021/12/02 09:42:48;;;;;;;25.87;14.47;;;;;;;1.67;100.00;99371.03;1796766;79;21444;-68
2021/12/02 09:45:16;;;;;;;24.57;14.73;;;;;;;1.72;100.00;99359.50;1797379;79;21055;-70
2021/12/02 09:47:47;;;;;;;27.80;13.53;;;;;;;1.78;100.00;99354.13;1796055;79;20970;-70
2021/12/02 09:50:23;;;;;;;21.43;12.13;;;;;;;1.82;100.00;99354.20;1790984;80;21009;-69
2021/12/02 09:52:50;;;;;;;25.13;14.07;;;;;;;1.90;100.00;99353.91;1697701;83;21646;-70
2021/12/02 09:55:25;;;;;;;21.37;12.40;;;;;;;1.97;100.00;99343.55;1690294;84;21084;-71
2021/12/02 09:57:54;;;;;;;22.27;11.63;;;;;;;2.09;100.00;99345.16;1692029;84;20963;-69
2021/12/02 10:00:24;;;;;;;20.93;11.67;;;;;;;2.21;100.00;99337.91;1692156;83;21131;-70
2021/12/02 10:02:53;;;;;;;19.63;10.47;;;;;;;2.32;100.00;99332.09;1703638;82;21051;-72
2021/12/02 10:05:32;;;;;;;20.40;11.07;;;;;;;2.40;100.00;99322.44;1706348;82;21102;-70
2021/12/02 10:08:02;;;;;;;18.27;10.10;;;;;;;2.36;100.00;99331.70;1632454;86;21073;-70
2021/12/02 10:13:20;;;;;;;16.87;9.73;;;;;;;2.27;100.00;99325.85;1551290;91;21222;-72
2021/12/02 10:15:49;;;;;;;18.73;10.43;;;;;;;2.24;100.00;99313.61;1550607;91;21099;-72
2021/12/02 10:18:13;;;;;;;21.53;11.67;;;;;;;2.27;100.00;99317.35;1541435;91;21120;-71
2021/12/02 10:20:46;;;;;;;19.73;11.97;;;;;;;2.35;100.00;99311.83;1539203;91;21069;-69
2021/12/02 10:23:32;;;;;;;17.60;10.43;;;;;;;2.44;100.00;99306.53;1553863;91;21064;-70
2021/12/02 10:25:58;;;;;;;18.60;10.43;;;;;;;2.53;100.00;99302.16;1518743;94;21099;-72
2021/12/02 10:28:27;;;;;;;22.10;12.27;;;;;;;2.57;100.00;99284.91;1517544;94;21090;-68
2021/12/02 10:30:58;;;;;;;21.07;10.73;;;;;;;2.60;100.00;99282.45;1519239;93;21121;-71
2021/12/02 10:33:41;;;;;;;21.97;11.57;;;;;;;2.62;100.00;99283.14;1517443;93;21619;-71
2021/12/02 10:36:30;;;;;;;20.32;11.90;;;;;;;2.62;100.00;99296.49;1520508;94;21099;-72
2021/12/02 10:39:18;;;;;;;25.23;17.33;;;;;;;2.61;100.00;99287.65;1516062;94;21079;-75
2021/12/02 10:41:46;;;;;;;22.03;12.77;;;;;;;2.62;100.00;99281.34;1518140;94;21664;-70
2021/12/02 10:47:01;;;;;;;22.23;11.17;;;;;;;2.62;100.00;99279.14;1485174;96;21122;-72
2021/12/02 10:49:32;;;;;;;20.90;10.63;;;;;;;2.57;100.00;99268.06;1503090;94;21564;-70
2021/12/02 10:52:03;;;;;;;21.23;10.37;;;;;;;2.58;100.00;99271.06;1476367;96;21616;-70
2021/12/02 10:54:34;;;;;;;21.83;10.47;;;;;;;2.62;100.00;99259.13;1476557;96;21057;-71
2021/12/02 10:57:10;;;;;;;20.73;10.53;;;;;;;2.66;100.00;99256.55;1462757;97;21143;-70
2021/12/02 10:59:55;;;;;;;20.47;11.03;;;;;;;2.67;100.00;99252.88;1428705;100;21099;-72
2021/12/02 11:02:38;;;;;;;23.00;12.30;;;;;;;2.65;100.00;99255.68;1372935;104;21356;-71
2021/12/02 11:05:32;;;;;;;19.60;10.30;;;;;;;2.65;100.00;99244.17;1336243;106;21131;-72
2021/12/02 11:08:09;;;;;;;25.55;10.48;;;;;;;2.67;100.00;99238.20;1358252;104;21132;-71
2021/12/02 11:10:46;;;;;;;18.70;9.87;;;;;;;2.76;100.00;99237.84;1357860;104;21164;-71
2021/12/02 11:13:20;;;;;;;21.23;10.67;;;;;;;2.88;100.00;99233.22;1358265;103;21180;-72
2021/12/02 11:15:47;;;;;;;29.42;15.05;;;;;;;3.03;100.00;99217.95;1355703;106;21164;-71
2021/12/02 11:18:16;;;;;;;22.23;10.47;;;;;;;3.18;100.00;99217.50;1357139;104;21192;-70
2021/12/02 11:20:50;;;;;;;20.30;8.70;;;;;;;3.32;100.00;99208.19;1357615;104;21211;-73
2021/12/02 11:23:30;;;;;;;17.20;9.83;;;;;;;3.50;100.00;99204.27;1372034;103;21149;-67
2021/12/02 11:26:01;;;;;;;16.13;7.80;;;;;;;3.68;100.00;99202.48;1366240;104;21681;-70
2021/12/02 11:28:33;;;;;;;17.77;9.10;;;;;;;3.82;100.00;99201.16;1364497;104;21739;-70
2021/12/02 11:31:20;;;;;;;19.43;9.23;;;;;;;3.92;100.00;99202.46;1385120;103;21092;-70
2021/12/02 11:33:52;;;;;;;21.67;10.97;;;;;;;4.00;100.00;99194.52;1382869;103;21506;-71
2021/12/02 11:36:24;;;;;;;17.60;7.50;;;;;;;4.09;100.00;99192.30;1381176;103;21240;-71
2021/12/02 11:38:58;;;;;;;14.68;7.15;;;;;;;4.12;100.00;99183.95;1383660;103;21099;-70
2021/12/02 11:41:26;;;;;;;20.47;9.37;;;;;;;4.12;100.00;99190.64;1381271;103;21212;-71
2021/12/02 11:43:54;;;;;;;18.43;8.87;;;;;;;4.13;100.00;99197.69;1407877;99;21115;-70
2021/12/02 11:46:21;;;;;;;23.87;13.00;;;;;;;4.13;100.00;99192.34;1427910;99;21974;-70